Thunder radar more information blitzortung!


Radar de pluja more information rain snow radar


Visita la nostra xarxa de llocs de meteo:

Template documentation
and downloads

And another site



No particular awareness of the weather is required.    There are no Weather-warnings

Pagina Historial Weather Underground text

Diari Resum Setembre 15, 2017 Unitats:  Imperial    Mètric   Tant
« Previous Dia
SegĂźent Dia »
Diari Setmana Mensual Anual Personalitzada
  Maxima: Minima: Media:
Temperatura: TemperatureC °F 9.6 °F 12.8 °F
Punt de rosada: DewpointC °F 7.9 °F 10.8 °F
Humitat: Humidity % 64 % 87 %
Wind Speed: WindSpeedKMH mph 0.0 mph 2.2 mph
RĂ fegues de vent: WindSpeedGustKMH mph - -
Vent:- - SSW
Pression baro: PressurehPa in 1011.7 in -
Precipitacions: 14.7 in    
Historical Graphs
 
 
Dades de taula per Setembre 15, 2017
Temps Temperatura Punt de rosada Pression baro Vent Wind Speed RĂ fegues de vent Humitat Rainfall Rate (Hourly)
TemperatureC °F DewpointC °F PressurehPa in Calm     Humidity % HourlyPrecipMM in
00:00 18.4 °F 11.4 °F 1015.8 in ENE 5.6 mph 5.6 mph 64 % 0.0 in
00:05 18.3 °F 11.6 °F 1014.8 in SE 7.4 mph 7.4 mph 65 % 0.0 in
00:15 13.7 °F 11.2 °F 1014.8 in NE 1.6 mph 4.8 mph 85 % 0.0 in
00:25 13.6 °F 10.9 °F 1014.8 in NNE 1.6 mph 3.2 mph 84 % 0.0 in
00:35 13.6 °F 11.1 °F 1014.8 in North 1.6 mph 1.6 mph 85 % 0.0 in
00:45 13.7 °F 11.2 °F 1013.8 in Calm   3.2 mph 85 % 0.0 in
00:55 13.6 °F 11.1 °F 1013.8 in Calm   3.2 mph 85 % 0.0 in
01:05 13.6 °F 11.1 °F 1013.8 in WSW 1.6 mph 1.6 mph 85 % 0.0 in
01:15 13.6 °F 11.1 °F 1013.8 in Calm   1.6 mph 85 % 0.0 in
01:25 13.4 °F 10.9 °F 1014.8 in NNE 1.6 mph 4.8 mph 85 % 0.0 in
01:35 13.4 °F 10.9 °F 1014.8 in Calm   3.2 mph 85 % 0.0 in
01:45 13.4 °F 10.9 °F 1014.8 in Calm   3.2 mph 85 % 0.0 in
01:55 13.3 °F 10.7 °F 1014.8 in NNE 1.6 mph 4.8 mph 84 % 0.0 in
02:05 13.2 °F 10.6 °F 1014.8 in NNE 3.2 mph 4.8 mph 84 % 0.0 in
02:15 13.2 °F 10.6 °F 1014.8 in NNE 1.6 mph 3.2 mph 84 % 0.0 in
02:25 13.3 °F 10.7 °F 1014.8 in Calm   3.2 mph 84 % 0.0 in
02:35 13.4 °F 10.8 °F 1014.8 in WNW 1.6 mph 3.2 mph 84 % 0.0 in
02:45 13.3 °F 10.7 °F 1014.8 in WNW 3.2 mph 3.2 mph 84 % 0.0 in
02:55 13.3 °F 10.7 °F 1014.8 in NW 1.6 mph 3.2 mph 84 % 0.0 in
03:05 13.3 °F 10.7 °F 1014.8 in North 1.6 mph 3.2 mph 84 % 0.0 in
03:15 13.3 °F 10.7 °F 1014.8 in NNE 1.6 mph 3.2 mph 84 % 0.0 in
03:25 13.2 °F 10.6 °F 1014.8 in NE 1.6 mph 1.6 mph 84 % 0.0 in
03:35 13.2 °F 10.6 °F 1014.8 in NNW 1.6 mph 3.2 mph 84 % 0.0 in
03:45 13.0 °F 10.0 °F 1014.8 in West 1.6 mph 3.2 mph 82 % 0.0 in
03:55 13.1 °F 10.1 °F 1014.8 in SSW 1.6 mph 1.6 mph 82 % 0.0 in
04:05 13.0 °F 9.8 °F 1014.8 in SW 3.2 mph 3.2 mph 81 % 0.0 in
04:15 12.9 °F 9.7 °F 1014.8 in WSW 1.6 mph 3.2 mph 81 % 0.0 in
04:25 13.1 °F 9.9 °F 1014.8 in Calm   1.6 mph 81 % 0.0 in
04:35 13.1 °F 9.7 °F 1014.8 in East 1.6 mph   80 % 0.0 in
04:45 13.2 °F 10.0 °F 1014.8 in Calm   3.2 mph 81 % 0.0 in
04:55 13.1 °F 9.9 °F 1014.8 in NNE 1.6 mph 3.2 mph 81 % 0.0 in
05:05 13.2 °F 10.0 °F 1014.8 in Calm   4.8 mph 81 % 0.0 in
05:15 13.1 °F 10.1 °F 1014.8 in Calm   3.2 mph 82 % 0.0 in
05:25 13.1 °F 10.3 °F 1014.8 in Calm     83 % 0.0 in
10:33 13.0 °F 10.2 °F 1014.8 in SW 3.7 mph   83 % 0.0 in
10:34 13.0 °F 10.2 °F 1014.8 in SW 3.7 mph   83 % 0.0 in
10:35 13.0 °F 10.2 °F 1014.8 in NNW 5.6 mph   83 % 0.0 in
10:40 12.9 °F 10.1 °F 1014.8 in NW 1.4 mph   83 % 0.0 in
10:45 12.8 °F 10.0 °F 1014.8 in West 2.3 mph   83 % 0.0 in
10:50 12.9 °F 10.1 °F 1014.8 in SSE 3.7 mph 3.7 mph 83 % 0.0 in
10:55 13.0 °F 10.3 °F 1014.8 in SSE 1.9 mph   84 % 0.0 in
11:00 12.8 °F 10.2 °F 1014.8 in SE 3.5 mph 3.5 mph 84 % 0.0 in
11:05 12.6 °F 9.8 °F 1014.8 in WNW 1.9 mph   83 % 0.0 in
11:10 12.7 °F 10.1 °F 1014.8 in East 3.7 mph 3.7 mph 84 % 0.0 in
11:15 12.8 °F 10.2 °F 1014.8 in NNE 1.9 mph   84 % 0.0 in
11:20 12.7 °F 10.1 °F 1014.8 in Calm     84 % 0.0 in
11:25 12.8 °F 10.3 °F 1014.8 in Calm     85 % 0.0 in
11:30 12.8 °F 10.3 °F 1014.8 in SSE 1.9 mph   85 % 0.0 in
11:35 12.8 °F 10.3 °F 1014.8 in ESE 2.3 mph 2.3 mph 85 % 0.0 in
11:40 12.8 °F 10.3 °F 1014.8 in SW 1.4 mph   85 % 0.0 in
11:45 13.0 °F 10.6 °F 1014.8 in South 1.9 mph   85 % 0.0 in
11:50 13.0 °F 10.6 °F 1014.8 in ESE 1.9 mph   85 % 0.0 in
11:55 12.9 °F 10.4 °F 1014.8 in WSW 1.9 mph 2.3 mph 85 % 0.0 in
12:00 12.9 °F 10.4 °F 1014.8 in SW 1.9 mph   85 % 0.0 in
12:05 12.9 °F 10.4 °F 1014.8 in South 1.9 mph   85 % 0.0 in
12:10 12.9 °F 10.4 °F 1014.8 in ESE 1.9 mph 1.9 mph 85 % 0.0 in
12:15 13.0 °F 10.6 °F 1014.8 in SW 2.6 mph   85 % 1.0 in
12:20 13.0 °F 10.7 °F 1014.8 in SW 2.3 mph 2.3 mph 86 % 1.0 in
12:25 12.9 °F 10.4 °F 1014.8 in NNW 1.9 mph   85 % 1.0 in
12:30 13.0 °F 10.7 °F 1014.8 in WNW 1.9 mph   86 % 1.0 in
12:35 13.1 °F 10.8 °F 1013.8 in Calm     86 % 1.0 in
12:40 13.2 °F 10.9 °F 1013.8 in West 3.7 mph 3.7 mph 86 % 1.0 in
12:41 13.2 °F 10.9 °F 1013.8 in WNW 3.7 mph 3.7 mph 86 % 1.0 in
12:46 13.3 °F 11.0 °F 1013.8 in WSW 4.2 mph   86 % 1.0 in
12:51 13.2 °F 10.7 °F 1014.8 in SW 5.6 mph 5.6 mph 85 % 1.0 in
12:56 13.3 °F 11.0 °F 1014.8 in Calm     86 % 1.0 in
13:01 13.1 °F 10.8 °F 1014.8 in NNE 1.9 mph 1.9 mph 86 % 1.0 in
13:06 13.2 °F 10.9 °F 1013.8 in WSW 2.3 mph   86 % 1.0 in
13:11 13.4 °F 11.3 °F 1013.8 in West 1.9 mph   87 % 1.0 in
13:16 13.3 °F 11.2 °F 1013.8 in NNW 1.9 mph 1.9 mph 87 % 0.0 in
13:21 13.4 °F 11.3 °F 1013.8 in SW 1.9 mph 2.3 mph 87 % 0.0 in
13:26 13.6 °F 11.5 °F 1013.8 in WSW 2.3 mph 2.3 mph 87 % 0.0 in
13:31 13.6 °F 11.5 °F 1013.8 in SW 1.9 mph   87 % 0.0 in
13:34 13.5 °F 11.4 °F 1013.8 in WNW 1.9 mph   87 % 0.0 in
13:39 13.4 °F 11.3 °F 1013.8 in South 1.9 mph   87 % 1.0 in
13:44 13.3 °F 11.2 °F 1013.8 in ENE 1.9 mph   87 % 1.0 in
13:49 13.4 °F 11.3 °F 1013.8 in WSW 3.7 mph 3.7 mph 87 % 1.0 in
13:54 13.4 °F 11.3 °F 1013.8 in SW 3.7 mph   87 % 1.0 in
13:59 13.5 °F 11.4 °F 1013.8 in Calm     87 % 1.0 in
14:04 13.5 °F 11.6 °F 1013.8 in WNW 1.9 mph   88 % 1.0 in
14:09 13.4 °F 11.3 °F 1013.8 in SW 3.7 mph 3.7 mph 87 % 1.0 in
14:14 13.5 °F 11.4 °F 1013.8 in SW 3.7 mph 3.7 mph 87 % 1.0 in
14:19 13.5 °F 11.4 °F 1013.8 in WNW 5.6 mph 5.6 mph 87 % 1.0 in
14:24 13.4 °F 11.3 °F 1013.8 in SW 1.9 mph   87 % 1.0 in
14:29 13.4 °F 11.3 °F 1013.8 in SW 3.7 mph 3.7 mph 87 % 1.0 in
14:34 13.3 °F 11.2 °F 1013.8 in West 1.9 mph   87 % 1.0 in
14:39 13.3 °F 11.2 °F 1013.8 in NNW 3.9 mph 3.9 mph 87 % 1.0 in
14:44 13.3 °F 11.2 °F 1013.8 in SW 1.9 mph   87 % 1.0 in
14:49 13.3 °F 11.3 °F 1013.8 in West 1.9 mph 1.9 mph 88 % 1.0 in
14:54 13.2 °F 11.1 °F 1013.8 in WSW 2.3 mph 2.3 mph 87 % 1.0 in
15:04 13.3 °F 11.3 °F 1013.8 in Calm     88 % 1.0 in
15:09 13.4 °F 11.4 °F 1013.8 in WNW 1.9 mph   88 % 1.0 in
15:14 13.5 °F 11.7 °F 1013.8 in Calm     89 % 2.0 in
15:19 13.5 °F 11.6 °F 1013.8 in SW 2.3 mph   88 % 2.0 in
15:24 13.6 °F 11.8 °F 1013.8 in Calm     89 % 2.0 in
15:29 13.7 °F 11.9 °F 1013.8 in West 1.9 mph   89 % 2.0 in
15:34 13.6 °F 11.8 °F 1013.8 in SW 3.7 mph   89 % 2.0 in
15:39 13.7 °F 11.9 °F 1013.8 in Calm     89 % 1.0 in
15:49 13.5 °F 11.7 °F 1013.8 in Calm     89 % 1.0 in
15:54 13.6 °F 12.0 °F 1013.8 in Calm     90 % 1.0 in
15:59 13.6 °F 12.0 °F 1013.8 in Calm     90 % 1.0 in
16:04 13.8 °F 12.2 °F 1012.8 in SW 1.9 mph   90 % 1.0 in
16:09 13.7 °F 12.1 °F 1012.8 in SW 2.3 mph 3.2 mph 90 % 1.0 in
16:14 13.8 °F 12.2 °F 1012.8 in SW 1.9 mph   90 % 1.3 in
16:19 13.5 °F 11.7 °F 1013.8 in East 3.7 mph 3.7 mph 89 % 1.3 in
16:24 13.6 °F 11.8 °F 1013.8 in Calm     89 % 1.3 in
16:29 13.5 °F 11.7 °F 1013.8 in NE 5.0 mph 5.0 mph 89 % 1.3 in
16:34 13.6 °F 11.8 °F 1013.8 in ENE 4.7 mph 4.7 mph 89 % 1.3 in
16:39 13.5 °F 11.7 °F 1013.8 in ENE 5.3 mph 5.3 mph 89 % 1.3 in
16:44 13.5 °F 11.7 °F 1013.8 in ENE 3.7 mph 3.7 mph 89 % 1.3 in
16:49 13.4 °F 11.6 °F 1011.7 in ENE 2.3 mph 2.6 mph 89 % 1.3 in
16:50 13.4 °F 11.6 °F 1011.7 in NNE 3.9 mph 3.9 mph 89 % 1.3 in
16:55 13.4 °F 11.6 °F 1011.7 in East 3.7 mph 3.7 mph 89 % 1.3 in
17:00 13.3 °F 11.5 °F 1011.7 in East 3.7 mph 3.7 mph 89 % 1.3 in
17:05 13.4 °F 11.6 °F 1012.8 in SW 4.7 mph 4.7 mph 89 % 1.3 in
17:10 13.6 °F 11.8 °F 1012.8 in South 3.7 mph   89 % 1.3 in
17:15 13.7 °F 12.1 °F 1012.8 in SSE 3.9 mph   90 % 0.0 in
17:20 13.7 °F 12.1 °F 1012.8 in SW 4.2 mph 4.2 mph 90 % 0.0 in
17:25 13.7 °F 11.9 °F 1012.8 in SSW 3.7 mph   89 % 1.0 in
17:30 13.7 °F 12.1 °F 1012.8 in SW 3.9 mph 3.9 mph 90 % 1.0 in
17:35 13.6 °F 12.0 °F 1013.8 in West 1.9 mph 1.9 mph 90 % 1.0 in
17:40 13.5 °F 11.9 °F 1013.8 in Calm     90 % 1.0 in
17:45 13.5 °F 11.9 °F 1013.8 in SW 3.7 mph 3.7 mph 90 % 1.0 in
17:50 13.4 °F 11.8 °F 1012.8 in WSW 3.7 mph 3.7 mph 90 % 1.0 in
17:55 13.5 °F 11.9 °F 1012.8 in Calm     90 % 1.0 in
18:00 13.6 °F 12.0 °F 1012.8 in Calm     90 % 1.0 in
18:05 13.5 °F 11.9 °F 1012.8 in SSW 3.7 mph 3.7 mph 90 % 1.0 in
18:10 13.4 °F 11.8 °F 1012.8 in SW 3.7 mph   90 % 1.0 in
18:15 13.4 °F 11.8 °F 1012.8 in Calm     90 % 1.0 in
18:20 13.5 °F 12.1 °F 1012.8 in SW 3.7 mph   91 % 1.0 in
18:25 13.4 °F 11.9 °F 1012.8 in Calm     91 % 0.0 in
18:30 13.3 °F 11.7 °F 1012.8 in WSW 3.7 mph 3.7 mph 90 % 0.0 in
18:35 13.3 °F 11.9 °F 1012.8 in SE 1.9 mph   91 % 0.0 in
18:36 13.3 °F 11.9 °F 1012.8 in SE 1.9 mph   91 % 0.0 in
18:41 13.3 °F 11.9 °F 1012.8 in Calm     91 % 1.0 in
18:46 13.2 °F 11.6 °F 1012.8 in WSW 3.7 mph 3.7 mph 90 % 1.0 in
18:51 13.2 °F 11.6 °F 1013.8 in WSW 5.6 mph 5.6 mph 90 % 1.0 in
18:56 13.3 °F 11.7 °F 1013.8 in West 1.9 mph   90 % 1.0 in
19:01 13.2 °F 11.8 °F 1013.8 in SW 3.7 mph   91 % 1.0 in
19:06 13.1 °F 11.5 °F 1012.8 in West 1.9 mph   90 % 1.0 in
19:11 13.1 °F 11.7 °F 1012.8 in Calm     91 % 1.0 in
19:16 13.1 °F 11.7 °F 1012.8 in Calm     91 % 1.0 in
19:21 13.1 °F 11.7 °F 1012.8 in Calm     91 % 1.0 in
19:26 13.1 °F 11.7 °F 1012.8 in West 1.9 mph   91 % 1.0 in
19:31 13.1 °F 11.7 °F 1012.8 in WSW 1.9 mph   91 % 1.0 in
19:36 13.1 °F 11.7 °F 1012.8 in Calm     91 % 1.0 in
19:41 13.0 °F 11.6 °F 1012.8 in Calm     91 % 0.0 in
19:46 13.0 °F 11.4 °F 1012.8 in NE 3.7 mph 3.7 mph 90 % 0.0 in
19:51 13.0 °F 11.6 °F 1011.7 in NNE 1.9 mph   91 % 0.0 in
19:56 13.1 °F 11.7 °F 1011.7 in NNE 3.7 mph 3.7 mph 91 % 0.0 in
20:01 13.0 °F 11.6 °F 1011.7 in NNE 1.9 mph   91 % 0.0 in
20:06 12.9 °F 11.3 °F 1012.8 in SSE 5.6 mph 5.6 mph 90 % 0.0 in
20:11 12.8 °F 11.2 °F 1012.8 in West 3.7 mph 3.7 mph 90 % 0.0 in
20:16 12.9 °F 11.3 °F 1012.8 in Calm     90 % 0.0 in
20:21 12.9 °F 11.3 °F 1013.8 in SW 5.3 mph 5.3 mph 90 % 0.0 in
20:26 13.0 °F 11.4 °F 1013.8 in WSW 3.7 mph 3.7 mph 90 % 0.0 in
20:31 12.9 °F 11.3 °F 1013.8 in SW 3.7 mph   90 % 0.0 in
20:36 12.9 °F 11.3 °F 1013.8 in SSW 5.6 mph 5.6 mph 90 % 0.0 in
20:41 12.9 °F 11.4 °F 1013.8 in WSW 3.7 mph 3.7 mph 91 % 0.0 in
20:46 12.8 °F 11.4 °F 1013.8 in West 3.7 mph 3.7 mph 91 % 0.0 in
20:51 12.7 °F 11.1 °F 1013.8 in West 3.7 mph 3.7 mph 90 % 0.0 in
20:56 12.7 °F 11.1 °F 1013.8 in Calm     90 % 0.0 in
21:01 12.5 °F 10.9 °F 1013.8 in West 5.0 mph 5.0 mph 90 % 0.0 in
21:06 12.4 °F 10.8 °F 1013.8 in WNW 3.7 mph 3.7 mph 90 % 0.0 in
21:11 12.4 °F 10.8 °F 1013.8 in SW 3.7 mph 3.7 mph 90 % 0.0 in
21:16 12.4 °F 10.8 °F 1013.8 in WSW 3.9 mph 3.9 mph 90 % 0.0 in
21:21 12.4 °F 10.8 °F 1013.8 in WSW 3.7 mph 3.7 mph 90 % 0.0 in
21:26 12.3 °F 10.7 °F 1013.8 in SW 1.9 mph 1.9 mph 90 % 0.0 in
21:31 12.3 °F 10.7 °F 1013.8 in Calm     90 % 0.0 in
21:36 12.3 °F 10.7 °F 1013.8 in South 3.7 mph 3.7 mph 90 % 0.0 in
21:41 12.2 °F 10.6 °F 1013.8 in West 1.9 mph 1.9 mph 90 % 0.0 in
21:46 12.2 °F 10.6 °F 1013.8 in SSW 3.7 mph   90 % 0.0 in
21:51 12.2 °F 10.6 °F 1014.8 in SW 3.9 mph 3.9 mph 90 % 0.0 in
21:56 12.1 °F 10.5 °F 1014.8 in SSW 3.7 mph 3.7 mph 90 % 0.0 in
22:01 12.0 °F 10.4 °F 1014.8 in SW 1.9 mph   90 % 0.0 in
22:06 12.0 °F 10.4 °F 1013.8 in Calm     90 % 0.0 in
22:11 12.0 °F 10.4 °F 1013.8 in SSW 1.9 mph 2.3 mph 90 % 0.0 in
22:15 10.0 °F 8.4 °F 1012.8 in Calm     90 % 0.0 in
22:16 11.9 °F 10.3 °F 1013.8 in SSW 3.7 mph 3.7 mph 90 % 0.0 in
22:21 11.8 °F 10.2 °F 1013.8 in Calm     90 % 0.0 in
22:25 10.1 °F 8.6 °F 1011.7 in SW 1.6 mph 3.2 mph 90 % 0.0 in
22:26 11.8 °F 10.2 °F 1013.8 in SSW 1.9 mph   90 % 0.0 in
22:31 11.7 °F 10.1 °F 1013.8 in Calm     90 % 0.0 in
22:35 10.0 °F 8.3 °F 1011.7 in SW 1.6 mph 3.2 mph 89 % 0.0 in
22:36 11.6 °F 10.0 °F 1013.8 in SSW 3.7 mph 3.7 mph 90 % 0.0 in
22:41 11.6 °F 10.0 °F 1013.8 in SSW 2.3 mph 2.6 mph 90 % 0.0 in
22:45 10.0 °F 8.3 °F 1011.7 in Calm     89 % 0.0 in
22:46 11.5 °F 9.9 °F 1013.8 in SW 3.7 mph 3.7 mph 90 % 0.0 in
22:51 11.5 °F 9.7 °F 1013.8 in SW 3.7 mph 3.7 mph 89 % 0.0 in
22:55 9.9 °F 8.2 °F 1011.7 in SW 1.6 mph 3.2 mph 89 % 0.0 in
22:56 11.5 °F 9.9 °F 1013.8 in SW 3.7 mph 3.7 mph 90 % 0.0 in
23:01 11.5 °F 9.9 °F 1013.8 in SW 1.9 mph   90 % 0.0 in
23:05 9.7 °F 8.0 °F 1011.7 in Calm   3.2 mph 89 % 0.0 in
23:06 11.5 °F 9.9 °F 1012.8 in SW 3.7 mph 3.7 mph 90 % 0.0 in
23:11 11.5 °F 9.9 °F 1012.8 in SW 3.7 mph 3.7 mph 90 % 0.0 in
23:15 9.9 °F 8.2 °F 1011.7 in SSW 1.6 mph 4.8 mph 89 % 0.0 in
23:16 11.5 °F 9.9 °F 1012.8 in SW 1.9 mph   90 % 0.0 in
23:21 11.5 °F 9.9 °F 1013.8 in Calm     90 % 0.0 in
23:25 10.0 °F 8.3 °F 1011.7 in SW 3.2 mph 3.2 mph 89 % 0.0 in
23:26 11.4 °F 9.8 °F 1013.8 in Calm     90 % 0.0 in
23:31 11.4 °F 9.8 °F 1013.8 in Calm     90 % 0.0 in
23:35 10.0 °F 8.3 °F 1011.7 in Calm   1.6 mph 89 % 0.0 in
23:36 11.3 °F 9.7 °F 1013.8 in SSW 3.7 mph 3.7 mph 90 % 0.0 in
23:41 11.2 °F 9.4 °F 1013.8 in SSW 3.7 mph 3.7 mph 89 % 0.0 in
23:45 9.6 °F 7.9 °F 1011.7 in WSW 3.2 mph 4.8 mph 89 % 0.0 in
23:46 11.2 °F 9.4 °F 1013.8 in SSW 3.7 mph 3.7 mph 89 % 0.0 in
23:51 11.1 °F 9.3 °F 1013.8 in Calm     89 % 0.0 in
23:55 9.6 °F 7.9 °F 1011.7 in SW 4.8 mph 4.8 mph 89 % 0.0 in
23:56 11.1 °F 9.3 °F 1013.8 in SW 1.9 mph 1.9 mph 89 % 0.0 in
Meteo Sesrovires
Elogis d' Weather Underground - 3.5 mb

Guio original per  Jim McMurry - jmcmurry@mwt.net Adaptat per a la plantilla per  Wim van der Kuil - Leuven-Template.eu

Trobareu la nostra informacio del temps tambe a:

Weather Underground

AWEKAS